Time;durP1;ratioP1;P1;durP2;ratioP2;P2;SDS_P1;SDS_P2;PMS_P1;PMS_P2;Temp;Humidity;BMP_temperature;BMP_pressure;BME280_temperature;BME280_humidity;BME280_pressure;Samples;Min_cycle;Max_cycle;Signal;HPM_P1;HPM_P2
2024/03/27 00:02:21;;;;;;;9.27;3.28;;;;;;;9.95;71.62;98699.75;4821608;29;20026;-92
2024/03/27 00:04:46;;;;;;;5.82;3.55;;;;;;;10.15;70.17;98702.28;4852009;29;20037;-90
2024/03/27 00:07:12;;;;;;;4.10;3.00;;;;;;;10.17;70.42;98705.50;4834716;29;20408;-91
2024/03/27 00:09:37;;;;;;;6.18;3.17;;;;;;;10.28;70.14;98711.59;4847643;29;20036;-90
2024/03/27 00:12:03;;;;;;;4.00;3.08;;;;;;;10.25;70.73;98696.81;4877947;29;20033;-91
2024/03/27 00:14:29;;;;;;;3.33;2.67;;;;;;;10.11;70.47;98675.13;4840511;29;20029;-92
2024/03/27 00:16:54;;;;;;;5.20;3.10;;;;;;;10.28;69.95;98674.72;4838131;29;20462;-92
2024/03/27 00:19:21;;;;;;;4.95;2.75;;;;;;;10.31;69.84;98663.44;4853168;29;20036;-91
2024/03/27 00:21:46;;;;;;;4.95;2.38;;;;;;;10.32;66.63;98672.28;4852897;29;20021;-91
2024/03/27 00:24:12;;;;;;;3.90;2.30;;;;;;;10.40;65.87;98674.38;4836175;29;20028;-92
2024/03/27 00:26:37;;;;;;;2.97;2.20;;;;;;;10.28;65.21;98657.78;4852494;29;20044;-90
2024/03/27 00:29:03;;;;;;;5.47;2.20;;;;;;;10.32;64.97;98670.41;4867339;29;20094;-92
2024/03/27 00:31:29;;;;;;;5.55;2.55;;;;;;;10.47;64.26;98663.25;4866536;29;20029;-92
2024/03/27 00:33:54;;;;;;;3.83;2.05;;;;;;;10.42;63.03;98645.28;4837855;29;20101;-92
2024/03/27 00:36:20;;;;;;;5.68;2.33;;;;;;;10.56;63.68;98660.75;4850978;29;20044;-91
2024/03/27 00:38:45;;;;;;;4.38;2.20;;;;;;;10.71;63.35;98674.84;4851655;29;20081;-92
2024/03/27 00:41:11;;;;;;;3.45;2.03;;;;;;;10.71;64.35;98663.28;4836839;29;20464;-91
2024/03/27 00:43:36;;;;;;;3.80;2.35;;;;;;;10.68;61.63;98653.88;4851212;29;20025;-91
2024/03/27 00:46:05;;;;;;;2.50;1.85;;;;;;;10.71;62.02;98655.22;4837299;29;20065;-91
2024/03/27 00:48:31;;;;;;;3.03;1.98;;;;;;;10.70;61.97;98661.66;4837397;29;20029;-91
2024/03/27 00:50:57;;;;;;;4.03;2.22;;;;;;;10.65;62.59;98643.69;4852206;29;20033;-92
2024/03/27 00:53:23;;;;;;;2.90;1.90;;;;;;;10.70;62.88;98637.44;4852646;29;20101;-91
2024/03/27 00:55:59;;;;;;;4.60;2.00;;;;;;;10.71;62.83;98630.97;4835342;29;20033;-92
2024/03/27 00:58:25;;;;;;;2.92;2.30;;;;;;;10.75;63.25;98652.72;4835772;29;20088;-92
2024/03/27 01:00:50;;;;;;;3.08;2.00;;;;;;;10.83;63.08;98655.59;4836556;29;20029;-91
2024/03/27 01:03:16;;;;;;;3.05;2.10;;;;;;;10.80;60.89;98663.44;4835128;29;20025;-92
2024/03/27 01:05:42;;;;;;;4.43;2.00;;;;;;;10.76;60.35;98646.25;4835931;29;20037;-92
2024/03/27 01:08:08;;;;;;;3.58;1.90;;;;;;;10.62;60.91;98640.75;4838623;29;20056;-92
2024/03/27 01:10:34;;;;;;;3.00;1.90;;;;;;;10.60;60.97;98641.03;4833158;29;20033;-92
2024/03/27 01:13:00;;;;;;;2.40;1.80;;;;;;;10.54;59.72;98633.31;4832425;29;20057;-92
2024/03/27 01:15:25;;;;;;;3.75;1.85;;;;;;;10.43;60.30;98619.97;4842102;29;20029;-90
2024/03/27 01:17:51;;;;;;;3.10;1.88;;;;;;;10.57;60.07;98649.69;4835053;29;20032;-91
2024/03/27 01:20:17;;;;;;;2.75;1.70;;;;;;;10.55;58.69;98651.88;4851148;29;20032;-92
2024/03/27 01:22:43;;;;;;;4.15;2.10;;;;;;;10.45;59.51;98638.53;4835077;29;20025;-92
2024/03/27 01:25:09;;;;;;;2.70;1.80;;;;;;;10.49;58.39;98672.66;4835198;29;20025;-92
2024/03/27 01:27:35;;;;;;;2.22;1.55;;;;;;;10.46;57.53;98649.00;4835461;29;20081;-91
2024/03/27 01:30:00;;;;;;;2.63;1.90;;;;;;;10.47;57.47;98645.22;4850316;29;20032;-91
2024/03/27 01:32:26;;;;;;;2.10;1.80;;;;;;;10.59;57.41;98652.13;4835260;29;20139;-91
2024/03/27 01:34:51;;;;;;;4.00;2.00;;;;;;;10.59;57.84;98652.13;4864921;29;20033;-91
2024/03/27 01:37:18;;;;;;;2.58;1.88;;;;;;;10.42;57.25;98641.81;4835275;29;20028;-91
2024/03/27 01:39:44;;;;;;;2.42;1.90;;;;;;;10.46;57.14;98640.16;4850799;29;20033;-91
2024/03/27 01:42:09;;;;;;;3.17;2.00;;;;;;;10.57;57.32;98655.09;4834605;29;20032;-91
2024/03/27 01:44:35;;;;;;;2.55;1.80;;;;;;;10.41;57.39;98640.19;4834754;29;20025;-91
2024/03/27 01:47:01;;;;;;;2.28;1.58;;;;;;;10.28;57.49;98642.44;4835761;29;20021;-91
2024/03/27 01:49:26;;;;;;;2.30;1.85;;;;;;;10.34;58.22;98634.34;4850070;29;20048;-91
2024/03/27 01:51:52;;;;;;;3.60;2.00;;;;;;;10.35;57.70;98625.97;4834437;29;20116;-92
2024/03/27 01:54:17;;;;;;;2.63;1.73;;;;;;;10.45;57.57;98660.06;4850401;29;20480;-91
2024/03/27 01:56:43;;;;;;;3.17;1.70;;;;;;;10.41;56.30;98648.25;4851659;29;20042;-92
2024/03/27 01:59:08;;;;;;;2.72;1.80;;;;;;;10.40;57.05;98657.44;4851554;29;20044;-92
2024/03/27 02:01:35;;;;;;;2.42;1.75;;;;;;;10.30;56.69;98629.53;4836013;29;20035;-90
2024/03/27 02:04:00;;;;;;;3.65;2.17;;;;;;;10.36;57.33;98651.81;4848298;29;20021;-91
2024/03/27 02:06:26;;;;;;;2.55;1.80;;;;;;;10.01;56.51;98613.38;4856443;29;20035;-91
2024/03/27 02:08:52;;;;;;;3.40;1.90;;;;;;;10.32;55.16;98648.09;4835917;29;20032;-91
2024/03/27 02:11:17;;;;;;;2.40;1.48;;;;;;;10.23;55.32;98625.53;4831196;29;20045;-91
2024/03/27 02:13:46;;;;;;;3.13;1.70;;;;;;;10.39;55.40;98653.91;4846440;29;20492;-91
2024/03/27 02:16:14;;;;;;;4.38;1.88;;;;;;;10.44;55.36;98659.25;4847803;29;20474;-91
2024/03/27 02:18:40;;;;;;;2.10;1.80;;;;;;;10.27;56.12;98623.88;4832024;29;20044;-91
2024/03/27 02:21:22;;;;;;;3.60;1.80;;;;;;;10.29;56.38;98624.38;4846049;29;20029;-91
2024/03/27 02:23:52;;;;;;;3.47;1.70;;;;;;;10.37;56.93;98652.59;4846874;29;20037;-91
2024/03/27 02:26:48;;;;;;;4.82;1.80;;;;;;;10.26;56.93;98641.13;4862174;29;20052;-91
2024/03/27 02:29:13;;;;;;;2.80;1.80;;;;;;;10.26;57.29;98633.84;4846039;29;20050;-91
2024/03/27 02:31:39;;;;;;;3.22;2.00;;;;;;;10.23;57.56;98636.28;4831752;29;20056;-91
2024/03/27 02:34:05;;;;;;;3.42;1.98;;;;;;;10.24;56.78;98644.09;4847758;29;20029;-90
2024/03/27 02:36:30;;;;;;;2.50;1.75;;;;;;;10.12;55.80;98620.25;4848477;29;20032;-91
2024/03/27 02:38:56;;;;;;;4.85;2.08;;;;;;;10.12;55.74;98614.06;4846763;29;20029;-91
2024/03/27 02:41:21;;;;;;;2.80;2.05;;;;;;;10.12;56.51;98638.28;4864600;29;20060;-91
2024/03/27 02:43:46;;;;;;;2.35;1.92;;;;;;;10.11;55.75;98629.41;4850401;29;20040;-91
2024/03/27 02:46:12;;;;;;;2.65;2.00;;;;;;;10.10;55.82;98625.09;4851154;29;20044;-92
2024/03/27 02:48:37;;;;;;;3.67;1.75;;;;;;;10.30;55.25;98656.44;4849384;29;20041;-92
2024/03/27 02:51:03;;;;;;;3.80;2.05;;;;;;;10.15;56.11;98658.41;4864841;29;20151;-92
2024/03/27 02:53:29;;;;;;;2.75;1.85;;;;;;;10.09;55.87;98639.66;4834281;29;20071;-90
2024/03/27 02:55:54;;;;;;;2.40;1.77;;;;;;;10.15;55.27;98637.72;4834506;29;20416;-91
2024/03/27 02:58:20;;;;;;;2.55;1.90;;;;;;;10.17;54.44;98634.72;4850170;29;20500;-91
2024/03/27 03:00:45;;;;;;;2.65;2.00;;;;;;;10.21;55.00;98641.97;4850252;29;20068;-91
2024/03/27 03:03:11;;;;;;;3.50;1.80;;;;;;;10.26;54.51;98643.81;4880491;29;20029;-91
2024/03/27 03:05:38;;;;;;;2.83;1.83;;;;;;;10.25;54.32;98653.78;4851266;29;20029;-91
2024/03/27 03:08:04;;;;;;;5.82;1.90;;;;;;;10.22;53.90;98648.94;4850138;29;20465;-92
2024/03/27 03:10:29;;;;;;;4.05;1.98;;;;;;;10.37;54.00;98682.19;4835939;29;20040;-91
2024/03/27 03:12:55;;;;;;;3.67;1.70;;;;;;;10.26;54.31;98649.97;4850195;29;20480;-91
2024/03/27 03:15:20;;;;;;;3.83;2.20;;;;;;;10.17;54.79;98640.94;4833547;29;20494;-91
2024/03/27 03:17:47;;;;;;;3.38;1.77;;;;;;;10.17;54.44;98643.63;4850266;29;20025;-91
2024/03/27 03:20:14;;;;;;;2.83;1.77;;;;;;;10.15;54.06;98628.84;4850493;29;20052;-91
2024/03/27 03:22:39;;;;;;;3.17;1.80;;;;;;;10.30;53.85;98652.94;4865037;29;20054;-91
2024/03/27 03:25:05;;;;;;;4.15;2.00;;;;;;;10.29;54.43;98662.06;4865713;29;20043;-91
2024/03/27 03:27:32;;;;;;;5.20;1.98;;;;;;;10.23;54.37;98652.44;4850196;29;20476;-92
2024/03/27 03:29:58;;;;;;;4.40;2.13;;;;;;;10.38;54.62;98659.59;4850010;29;20025;-91
2024/03/27 03:32:24;;;;;;;4.18;1.90;;;;;;;10.40;54.68;98666.28;4834459;29;20389;-92
2024/03/27 03:34:50;;;;;;;4.15;1.95;;;;;;;10.36;54.70;98661.78;4849990;29;20098;-91
2024/03/27 03:37:16;;;;;;;2.80;1.80;;;;;;;10.35;55.23;98668.22;4852596;29;20032;-91
2024/03/27 03:39:41;;;;;;;2.78;1.77;;;;;;;10.30;54.24;98653.75;4853674;29;20061;-90
2024/03/27 03:42:07;;;;;;;2.72;1.90;;;;;;;10.30;53.47;98659.13;4837309;29;20224;-90
2024/03/27 03:44:32;;;;;;;4.68;2.10;;;;;;;10.24;54.70;98657.53;4838831;29;20036;-91
2024/03/27 03:46:58;;;;;;;2.85;2.05;;;;;;;10.30;55.24;98655.63;4853367;29;20474;-91
2024/03/27 03:49:23;;;;;;;3.60;1.80;;;;;;;10.28;55.18;98653.19;4853408;29;20040;-91
2024/03/27 03:51:49;;;;;;;2.85;2.13;;;;;;;10.35;55.17;98669.03;4852922;29;20076;-91
2024/03/27 03:54:17;;;;;;;3.00;1.85;;;;;;;10.29;54.72;98662.91;4851942;29;20044;-91
2024/03/27 03:56:42;;;;;;;3.92;1.80;;;;;;;10.35;54.04;98660.16;4848700;29;20037;-91
2024/03/27 03:59:08;;;;;;;2.38;1.80;;;;;;;10.38;54.46;98670.38;4819100;29;20086;-90
2024/03/27 04:01:34;;;;;;;2.55;1.90;;;;;;;10.27;54.00;98648.91;4865518;29;20041;-91
2024/03/27 04:04:02;;;;;;;2.90;2.20;;;;;;;10.35;53.76;98658.25;4853082;29;20044;-90
2024/03/27 04:06:28;;;;;;;3.75;2.20;;;;;;;10.28;53.79;98641.63;4866771;29;20161;-91
2024/03/27 04:08:54;;;;;;;3.50;2.00;;;;;;;10.35;53.58;98657.47;4868502;29;20025;-91
2024/03/27 04:11:20;;;;;;;3.22;2.00;;;;;;;10.45;53.97;98670.81;4867149;29;20058;-91
2024/03/27 04:13:46;;;;;;;3.70;1.70;;;;;;;10.41;53.92;98665.19;4851315;29;20032;-90
2024/03/27 04:16:11;;;;;;;3.13;1.98;;;;;;;10.37;53.47;98660.69;4868136;29;20400;-90
2024/03/27 04:18:37;;;;;;;3.83;2.10;;;;;;;10.49;52.87;98669.97;4866596;29;20025;-90
2024/03/27 04:21:06;;;;;;;3.72;1.63;;;;;;;10.34;53.39;98659.38;4851962;29;20025;-91
2024/03/27 04:23:31;;;;;;;2.38;1.85;;;;;;;10.37;53.20;98661.47;4867935;29;20021;-91
2024/03/27 04:25:57;;;;;;;3.17;2.00;;;;;;;10.36;53.02;98657.19;4851865;29;20043;-91
2024/03/27 04:28:22;;;;;;;2.65;1.95;;;;;;;10.38;54.09;98651.53;4868511;29;20036;-91
2024/03/27 04:30:48;;;;;;;2.63;1.90;;;;;;;10.43;53.50;98668.41;4851960;29;20120;-91
2024/03/27 04:33:13;;;;;;;3.17;1.80;;;;;;;10.49;52.75;98663.78;4866757;29;20483;-91
2024/03/27 04:35:39;;;;;;;2.90;2.00;;;;;;;10.43;52.78;98654.94;4852833;29;20029;-90
2024/03/27 04:38:05;;;;;;;3.80;2.17;;;;;;;10.64;53.38;98678.97;4868212;29;20173;-91
2024/03/27 04:40:31;;;;;;;2.72;1.80;;;;;;;10.63;52.23;98678.16;4868203;29;20025;-91
2024/03/27 04:42:57;;;;;;;2.92;1.85;;;;;;;10.61;52.38;98671.47;4867918;29;20065;-91
2024/03/27 04:45:22;;;;;;;2.47;1.73;;;;;;;10.77;52.88;98688.25;4882612;29;20033;-94
2024/03/27 04:47:48;;;;;;;3.28;2.00;;;;;;;10.75;52.39;98672.41;4868104;29;20052;-92
2024/03/27 04:50:13;;;;;;;3.40;2.25;;;;;;;10.76;51.87;98671.28;4867326;29;20499;-91
2024/03/27 04:52:39;;;;;;;3.38;2.03;;;;;;;10.77;52.96;98672.09;4827093;29;20048;-91
2024/03/27 04:55:05;;;;;;;3.33;2.30;;;;;;;10.77;54.06;98670.22;4823318;29;20041;-92
2024/03/27 04:57:31;;;;;;;3.35;2.08;;;;;;;10.85;55.20;98684.91;4836131;29;20104;-91
2024/03/27 04:59:56;;;;;;;5.35;2.30;;;;;;;10.65;55.82;98664.44;4818719;29;20025;-91
2024/03/27 05:02:24;;;;;;;3.70;2.55;;;;;;;10.82;55.15;98678.22;4819044;29;20067;-91
2024/03/27 05:04:50;;;;;;;3.60;2.20;;;;;;;10.86;56.09;98686.53;4818331;29;20026;-91
2024/03/27 05:07:16;;;;;;;2.97;1.95;;;;;;;10.98;55.97;98700.41;4818324;29;20032;-91
2024/03/27 05:09:41;;;;;;;4.88;3.00;;;;;;;10.84;56.15;98673.34;4818692;29;20032;-92
2024/03/27 05:12:15;;;;;;;3.58;2.10;;;;;;;10.96;56.66;98686.44;4817892;29;20420;-93
2024/03/27 05:14:40;;;;;;;10.40;6.18;;;;;;;10.88;58.82;98677.06;4835415;29;20040;-92
2024/03/27 05:17:07;;;;;;;4.97;3.92;;;;;;;10.94;60.09;98704.75;4818677;29;20033;-92
2024/03/27 05:19:36;;;;;;;5.53;3.50;;;;;;;10.82;59.68;98678.22;4833575;29;20025;-92
2024/03/27 05:22:01;;;;;;;3.80;3.00;;;;;;;10.91;59.45;98691.84;4848938;29;20030;-92
2024/03/27 05:24:27;;;;;;;5.68;3.15;;;;;;;10.83;60.58;98671.75;4832576;29;20056;-92
2024/03/27 05:26:53;;;;;;;4.15;2.65;;;;;;;10.81;60.63;98681.19;4833120;29;20021;-92
2024/03/27 05:29:18;;;;;;;4.85;2.83;;;;;;;10.83;60.71;98689.78;4848624;29;20040;-92
2024/03/27 05:31:56;;;;;;;5.10;3.50;;;;;;;10.90;61.20;98684.88;4832936;29;20489;-92
2024/03/27 05:34:22;;;;;;;6.75;3.65;;;;;;;10.88;61.14;98671.69;4818800;29;20040;-93
2024/03/27 05:36:48;;;;;;;12.15;6.15;;;;;;;10.87;63.15;98659.34;4847646;29;20112;-92
2024/03/27 05:39:14;;;;;;;13.90;6.35;;;;;;;10.86;64.12;98660.41;4817449;29;20057;-93
2024/03/27 05:41:42;;;;;;;13.60;6.07;;;;;;;10.96;64.71;98682.91;4833106;29;20037;-93
2024/03/27 05:45:22;;;;;;;5.57;3.63;;;;;;;11.03;64.60;98696.84;4835786;29;20048;-91
2024/03/27 05:47:51;;;;;;;11.88;7.47;;;;;;;10.90;66.11;98666.03;4866910;29;20033;-93
2024/03/27 05:50:27;;;;;;;8.30;5.07;;;;;;;10.97;66.94;98662.97;4834324;29;20041;-94
2024/03/27 05:52:56;;;;;;;13.25;5.13;;;;;;;11.01;67.00;98670.19;4835755;29;20085;-95
2024/03/27 05:55:21;;;;;;;11.70;6.32;;;;;;;11.07;66.92;98679.00;4818247;29;20044;-92
2024/03/27 05:58:03;;;;;;;14.30;6.70;;;;;;;11.08;66.76;98664.44;4836925;29;20025;-96
2024/03/27 06:00:31;;;;;;;;;;;;;;;11.27;65.85;98689.53;4851262;29;20438;-93
2024/03/27 06:03:01;;;;;;;7.65;4.40;;;;;;;11.22;64.00;98699.56;4865171;29;19916;-93
2024/03/27 06:05:33;;;;;;;7.13;4.80;;;;;;;11.03;62.69;98673.41;4822302;29;20112;-91
2024/03/27 06:08:01;;;;;;;5.55;3.13;;;;;;;11.17;60.07;98694.25;4847021;29;20044;-92
2024/03/27 06:10:36;;;;;;;13.20;7.75;;;;;;;11.23;61.45;98682.31;4834561;29;20033;-93
2024/03/27 06:13:04;;;;;;;10.00;5.47;;;;;;;11.32;62.36;98694.03;4821848;29;20118;-92
2024/03/27 06:15:52;;;;;;;10.85;6.82;;;;;;;11.56;61.75;98709.34;4817304;29;20029;-94
2024/03/27 06:18:18;;;;;;;30.08;13.52;;;;;;;11.50;61.88;98701.34;4833789;29;20124;-93
2024/03/27 06:26:14;;;;;;;6.95;4.15;;;;;;;11.98;59.79;98715.81;5056917;23;20531;-95
2024/03/27 06:28:40;;;;;;;8.73;3.85;;;;;;;12.06;59.77;98715.94;4891500;29;20061;-92
2024/03/27 06:31:23;;;;;;;5.18;3.30;;;;;;;12.18;57.70;98676.88;4887011;29;20040;-94
2024/03/27 06:34:06;;;;;;;4.53;3.10;;;;;;;12.49;56.32;98690.63;4870668;29;20036;-93
2024/03/27 06:36:35;;;;;;;4.88;3.47;;;;;;;12.64;55.25;98684.97;4872480;29;20092;-94
2024/03/27 06:39:12;;;;;;;4.90;3.30;;;;;;;12.93;54.89;98694.69;4888272;29;20028;-89
2024/03/27 06:42:00;;;;;;;6.90;3.10;;;;;;;12.99;55.08;98698.06;4871754;29;20088;-94
2024/03/27 06:44:31;;;;;;;12.60;6.10;;;;;;;13.05;56.68;98703.09;4872154;29;20032;-94
2024/03/27 06:46:57;;;;;;;;;;;;;;;13.21;55.54;98721.69;4884845;29;20388;-93
2024/03/27 06:49:32;;;;;;;57.33;34.42;;;;;;;13.04;54.53;98697.97;4884933;29;19924;-92
2024/03/27 06:52:01;;;;;;;9.75;5.05;;;;;;;12.95;55.33;98695.19;4869082;29;20033;-92
2024/03/27 06:54:26;;;;;;;10.85;7.47;;;;;;;13.13;55.36;98705.06;4888786;29;20033;-95
2024/03/27 07:13:09;;;;;;;8.35;5.82;;;;;;;13.42;57.71;98711.28;4910978;29;20049;-92
2024/03/27 07:15:35;;;;;;;11.00;6.45;;;;;;;13.34;57.62;98704.66;4859629;29;20037;-94
2024/03/27 07:18:13;;;;;;;23.73;21.23;;;;;;;13.41;58.36;98710.47;4878396;29;20032;-95
2024/03/27 07:21:01;;;;;;;10.05;6.32;;;;;;;13.56;58.35;98727.50;4880636;29;20119;-95
2024/03/27 07:23:33;;;;;;;7.18;5.18;;;;;;;13.44;57.75;98703.66;4873984;29;20037;-95
2024/03/27 07:32:46;;;;;;;7.80;3.72;;;;;;;13.61;56.45;98716.53;4870059;29;20064;-92
2024/03/27 07:35:24;;;;;;;7.47;4.65;;;;;;;13.68;57.48;98719.66;4855025;29;20033;-96
2024/03/27 07:37:49;;;;;;;5.57;4.00;;;;;;;13.55;57.20;98686.13;4858275;29;20044;-96
2024/03/27 07:40:31;;;;;;;14.50;8.18;;;;;;;13.65;58.45;98693.97;4862489;29;20040;-96
2024/03/27 07:43:03;;;;;;;6.87;4.37;;;;;;;13.64;56.59;98686.19;4862355;29;20028;-95
2024/03/27 07:56:05;;;;;;;6.50;3.87;;;;;;;14.09;55.88;98683.47;4874040;29;20315;-95
2024/03/27 07:58:31;;;;;;;;;;;;;;;14.27;56.02;98704.16;4852254;29;20033;-93
2024/03/27 08:01:08;;;;;;;5.50;3.72;;;;;;;14.24;57.07;98683.13;4851297;29;19993;-93
2024/03/27 08:03:36;;;;;;;4.18;3.22;;;;;;;14.39;56.69;98679.22;4849671;29;20116;-93
2024/03/27 08:06:33;;;;;;;7.18;4.15;;;;;;;14.30;56.79;98689.22;4831651;29;20037;-91
2024/03/27 08:09:29;;;;;;;;;;;;;;;;;;;;;
2024/03/27 08:19:03;;;;;;;11.13;7.68;;;;;;;14.32;58.04;98658.00;4863987;29;20180;-91
2024/03/27 08:21:29;;;;;;;78.40;49.53;;;;;;;14.51;57.45;98651.56;4856313;29;20028;-96
2024/03/27 08:24:00;;;;;;;5.82;4.18;;;;;;;14.89;55.89;98673.56;4887960;29;20028;-92
2024/03/27 08:26:42;;;;;;;5.20;2.75;;;;;;;14.95;55.31;98641.69;4886320;29;20032;-91
2024/03/27 08:29:38;;;;;;;;;;;;;;;15.30;52.20;98672.38;4858063;29;20025;-90
2024/03/27 08:32:09;;;;;;;5.93;3.15;;;;;;;15.39;53.40;98644.47;4873667;29;19941;-92
2024/03/27 08:34:51;;;;;;;21.63;8.25;;;;;;;15.54;53.21;98646.69;4873601;29;20100;-96
2024/03/27 08:40:09;;;;;;;6.38;3.58;;;;;;;15.42;51.61;98639.22;4872398;29;20080;-93
2024/03/27 08:42:46;;;;;;;8.82;4.05;;;;;;;15.34;53.44;98648.94;4879047;29;20027;-93
2024/03/27 08:45:19;;;;;;;10.10;6.90;;;;;;;15.19;53.67;98656.72;4891573;29;20096;-94
2024/03/27 08:47:45;;;;;;;7.65;4.00;;;;;;;15.39;52.90;98650.69;4861205;29;20040;-93
2024/03/27 08:50:13;;;;;;;9.70;4.22;;;;;;;15.54;51.56;98639.38;4837956;29;20124;-92
2024/03/27 08:52:41;;;;;;;8.27;3.92;;;;;;;15.53;53.32;98636.97;4853011;29;20025;-93
2024/03/27 08:55:30;;;;;;;;;;;;;;;;;;;;;
2024/03/27 08:58:04;;;;;;;5.78;2.88;;;;;;;15.97;52.19;98637.75;4884113;29;20481;-91
2024/03/27 09:00:32;;;;;;;7.97;3.42;;;;;;;16.06;51.73;98621.44;4873324;29;20032;-94
2024/03/27 09:02:58;;;;;;;7.70;3.45;;;;;;;16.17;53.69;98636.28;4841682;29;20046;-95
2024/03/27 09:05:31;;;;;;;10.13;4.85;;;;;;;16.02;52.61;98626.75;4905088;29;20058;-94
2024/03/27 09:08:14;;;;;;;7.50;3.33;;;;;;;16.14;51.60;98617.91;4902649;29;20033;-95
2024/03/27 09:10:40;;;;;;;7.75;2.40;;;;;;;16.24;48.95;98611.34;4841193;29;20029;-93
2024/03/27 09:16:29;;;;;;;7.05;2.10;;;;;;;16.43;47.56;98614.47;4880427;29;20475;-93
2024/03/27 09:19:06;;;;;;;6.82;2.22;;;;;;;16.66;48.33;98615.00;4838847;29;20092;-93
2024/03/27 09:28:58;;;;;;;;;;;;;;;;;;;;;
2024/03/27 09:31:24;;;;;;;13.43;2.95;;;;;;;16.57;48.55;98608.81;4838141;29;20029;-90
2024/03/27 09:34:58;;;;;;;;;;;;;;;;;;;;;
2024/03/27 09:37:47;;;;;;;9.90;5.05;;;;;;;16.07;49.50;98582.31;4793444;29;20040;-92
2024/03/27 09:48:16;;;;;;;7.72;2.70;;;;;;;16.16;50.30;98599.38;4683280;30;20070;-91
2024/03/27 09:50:51;;;;;;;14.25;3.13;;;;;;;16.53;49.85;98599.72;4629770;30;20047;-91
2024/03/27 09:53:22;;;;;;;13.10;3.60;;;;;;;16.73;48.93;98603.63;4656812;30;20197;-95
2024/03/27 09:55:56;;;;;;;10.02;2.50;;;;;;;16.84;48.32;98593.19;4748878;29;20126;-92
2024/03/27 09:58:34;;;;;;;12.82;3.83;;;;;;;17.03;47.73;98592.75;4748200;30;20043;-93
2024/03/27 10:00:59;;;;;;;9.25;3.20;;;;;;;17.15;49.04;98593.63;4746515;30;20157;-95
2024/03/27 10:03:33;;;;;;;5.85;2.47;;;;;;;17.41;47.00;98587.19;4818049;29;20042;-96
2024/03/27 10:14:12;;;;;;;12.63;4.05;;;;;;;17.67;46.84;98578.00;4792936;29;20120;-93
2024/03/27 10:16:40;;;;;;;17.27;3.80;;;;;;;17.76;48.11;98589.59;4856730;29;20047;-94
2024/03/27 10:26:48;;;;;;;;;;;;;;;;;;;;;
2024/03/27 10:29:14;;;;;;;25.52;13.48;;;;;;;18.25;45.16;98578.06;4792880;30;20501;-94
2024/03/27 10:31:54;;;;;;;16.67;3.58;;;;;;;18.16;45.03;98564.53;4780619;29;20038;-95
2024/03/27 10:35:25;;;;;;;;;;;;;;;;;;;;;
2024/03/27 10:37:50;;;;;;;8.63;3.28;;;;;;;18.50;44.94;98579.66;4769480;30;20123;-95
2024/03/27 10:40:23;;;;;;;13.48;3.55;;;;;;;18.29;44.96;98570.78;4813359;29;20185;-95
2024/03/27 10:42:54;;;;;;;11.75;3.10;;;;;;;18.38;45.54;98566.00;4851484;29;20040;-95
2024/03/27 10:45:20;;;;;;;9.95;3.15;;;;;;;18.50;44.95;98573.41;4856261;29;20029;-96
2024/03/27 10:47:46;;;;;;;20.15;4.05;;;;;;;18.79;44.96;98577.84;4855398;29;20625;-96
2024/03/27 10:50:11;;;;;;;14.15;3.17;;;;;;;18.96;44.62;98560.44;4890824;29;20064;-94
2024/03/27 10:52:48;;;;;;;14.93;3.92;;;;;;;19.14;43.13;98564.50;4879288;29;20037;-93
2024/03/27 10:55:14;;;;;;;14.05;3.67;;;;;;;19.25;42.31;98556.59;4881247;29;20127;-95
2024/03/27 10:58:15;;;;;;;14.25;2.83;;;;;;;19.01;43.00;98552.03;4896405;29;20025;-93
2024/03/27 11:00:44;;;;;;;11.07;2.53;;;;;;;19.21;43.16;98563.91;4884160;29;20018;-92
2024/03/27 11:03:15;;;;;;;13.80;3.65;;;;;;;18.93;43.18;98547.50;4909193;29;20032;-94
2024/03/27 11:05:58;;;;;;;13.45;3.40;;;;;;;18.98;42.58;98537.13;4873906;29;20029;-94
2024/03/27 11:08:37;;;;;;;12.38;3.08;;;;;;;19.23;42.96;98542.50;4898435;29;20056;-96
2024/03/27 11:12:04;;;;;;;8.95;2.65;;;;;;;19.48;42.57;98554.13;4877162;29;20020;-92
2024/03/27 11:14:38;;;;;;;16.17;3.72;;;;;;;19.25;43.85;98542.97;4893788;29;20167;-93
2024/03/27 11:17:18;;;;;;;19.30;3.17;;;;;;;19.34;43.96;98549.09;4876143;29;20056;-94
2024/03/27 11:19:46;;;;;;;13.75;2.55;;;;;;;19.44;42.25;98545.03;4857089;29;20471;-95
2024/03/27 11:22:18;;;;;;;18.00;4.28;;;;;;;19.46;43.81;98541.97;4878860;29;20029;-96
2024/03/27 11:24:56;;;;;;;18.73;4.20;;;;;;;19.59;43.33;98529.88;4852605;29;20505;-95
2024/03/27 11:27:28;;;;;;;11.13;2.78;;;;;;;19.75;41.89;98554.50;4878951;29;20039;-93
2024/03/27 11:29:59;;;;;;;17.73;4.20;;;;;;;19.68;41.83;98535.16;4874152;29;20060;-96
2024/03/27 11:32:38;;;;;;;19.98;3.40;;;;;;;19.86;42.65;98561.06;4886510;29;21353;-95
2024/03/27 11:35:04;;;;;;;10.40;2.58;;;;;;;19.78;41.79;98529.22;4861361;29;20021;-94
2024/03/27 11:41:44;;;;;;;12.23;2.97;;;;;;;20.25;40.58;98535.84;4906656;29;20043;-94
2024/03/27 11:44:44;;;;;;;14.18;2.88;;;;;;;20.58;42.07;98554.63;4905190;29;20479;-94
2024/03/27 11:47:14;;;;;;;11.63;3.78;;;;;;;20.90;40.96;98544.44;4854192;29;20079;-94
2024/03/27 11:53:23;;;;;;;9.00;2.13;;;;;;;21.48;39.15;98523.72;4857806;29;20068;-94
2024/03/27 11:56:18;;;;;;;10.95;3.55;;;;;;;21.62;39.93;98534.94;4831243;29;20283;-94
2024/03/27 11:58:43;;;;;;;16.10;3.08;;;;;;;21.73;39.02;98505.03;4816678;29;20045;-94
2024/03/27 12:01:23;;;;;;;;;;;;;;;;;;;;;
2024/03/27 12:04:05;;;;;;;;;;;;;;;;;;;;;
2024/03/27 12:07:53;;;;;;;10.25;3.20;;;;;;;21.93;38.62;98494.78;4831615;29;20049;-93
2024/03/27 12:11:14;;;;;;;;;;;;;;;;;;;;;
2024/03/27 12:14:00;;;;;;;17.30;3.35;;;;;;;21.59;39.16;98487.16;4831871;29;20125;-96
2024/03/27 12:24:34;;;;;;;15.68;3.78;;;;;;;21.50;38.90;98480.31;4839255;29;20046;-96
2024/03/27 12:29:53;;;;;;;23.88;3.10;;;;;;;21.78;38.48;98496.47;4805401;29;20050;-92
2024/03/27 12:32:35;;;;;;;9.82;2.70;;;;;;;21.50;37.97;98474.84;4864930;29;20120;-94
2024/03/27 12:35:09;;;;;;;21.65;3.50;;;;;;;21.63;38.60;98478.22;4862359;29;20033;-93
2024/03/27 12:37:57;;;;;;;11.15;3.40;;;;;;;21.65;38.68;98486.88;4869733;29;20049;-96
2024/03/27 12:47:09;;;;;;;15.50;3.17;;;;;;;21.31;38.94;98470.97;4862760;29;20037;-96
2024/03/27 12:53:26;;;;;;;;;;;;;;;;;;;;;
2024/03/27 12:56:14;;;;;;;19.27;3.80;;;;;;;21.44;39.10;98454.41;4866980;29;20117;-95
2024/03/27 12:58:45;;;;;;;16.88;4.85;;;;;;;21.52;39.06;98461.56;4850863;29;20029;-95
2024/03/27 13:09:44;;;;;;;;;;;;;;;;;;;;;
2024/03/27 13:13:03;;;;;;;;;;;;;;;;;;;;;
2024/03/27 13:16:59;;;;;;;;;;;;;;;;;;;;;
2024/03/27 13:20:03;;;;;;;15.23;3.63;;;;;;;21.96;39.53;98466.66;4808738;29;20047;-95
2024/03/27 13:26:08;;;;;;;;;;;;;;;;;;;;;
2024/03/27 13:32:32;;;;;;;21.25;3.65;;;;;;;21.74;39.17;98462.75;4851133;29;20049;-94
2024/03/27 13:35:28;;;;;;;;;;;;;;;;;;;;;
2024/03/27 13:37:59;;;;;;;17.35;3.85;;;;;;;22.04;37.95;98449.16;4884839;29;20371;-96
2024/03/27 13:40:27;;;;;;;22.42;4.68;;;;;;;22.10;38.23;98455.09;4876041;29;20036;-95
2024/03/27 13:43:49;;;;;;;;;;;;;;;;;;;;;
2024/03/27 13:46:23;;;;;;;21.98;5.13;;;;;;;22.14;38.25;98425.78;4869364;29;20193;-96
2024/03/27 13:49:15;;;;;;;26.83;5.03;;;;;;;22.18;38.99;98454.88;4866155;29;20481;-96
2024/03/27 13:55:05;;;;;;;25.92;4.45;;;;;;;21.58;39.80;98411.63;4884338;29;20044;-96
2024/03/27 13:57:57;;;;;;;17.83;3.47;;;;;;;21.61;39.12;98432.00;4851954;29;20048;-95
2024/03/27 14:00:43;;;;;;;22.05;4.10;;;;;;;21.74;39.20;98438.88;4883653;29;20033;-95
2024/03/27 14:03:09;;;;;;;18.77;3.70;;;;;;;21.51;40.40;98438.88;4885243;29;20550;-96
2024/03/27 14:05:37;;;;;;;18.25;4.72;;;;;;;21.71;39.34;98455.28;4891443;29;20046;-96
2024/03/27 14:08:05;;;;;;;18.63;3.90;;;;;;;21.31;40.25;98426.34;4888095;29;20503;-94
2024/03/27 14:10:41;;;;;;;;;;;;;;;;;;;;;
2024/03/27 14:17:11;;;;;;;14.93;4.28;;;;;;;21.30;41.11;98461.16;4847289;29;20481;-96
2024/03/27 14:19:40;;;;;;;14.13;3.47;;;;;;;20.99;41.74;98448.44;4860780;29;20056;-96
2024/03/27 14:22:08;;;;;;;20.33;4.18;;;;;;;20.65;42.02;98436.38;4879360;29;20052;-96
2024/03/27 14:24:39;;;;;;;18.80;3.97;;;;;;;20.98;41.91;98424.97;4891864;29;20463;-95
2024/03/27 14:27:15;;;;;;;21.50;4.20;;;;;;;20.88;41.46;98442.75;4901202;29;20036;-95
2024/03/27 14:30:19;;;;;;;16.20;4.22;;;;;;;20.76;41.94;98440.94;4861531;29;20127;-94
2024/03/27 14:32:46;;;;;;;13.15;3.90;;;;;;;20.69;42.62;98446.28;4879982;29;20068;-96
2024/03/27 14:35:11;;;;;;;16.85;4.30;;;;;;;20.38;42.87;98423.31;4860144;29;20032;-94